<?xml version="1.0" encoding="UTF-8" standalone="no" ?>
<gpx xmlns="http://www.topografix.com/GPX/1/1" xmlns:xsi="http://www.w3.org/2001/XMLSchema-instance" xsi:schemaLocation="http://www.topografix.com/GPX/1/1 http://www.topografix.com/GPX/1/1/gpx.xsd" version="1.1" creator="VisuGPX - https://www.visugpx.com">
  <metadata>
    <name>Etang de Larnoum</name>
    <desc><![CDATA[Etang de Larnoum en boucle  en passant par la cabane des Ludines
et reour par la crete de Sirmon]]></desc>
  </metadata>
  <trk>
    <name><![CDATA[ACTIVE LOG-F]]></name>
    <trkseg>
      <trkpt lat="42.71443" lon="1.66545">
        <ele>1034.996582</ele>
        <time>2013-06-16T09:15:27Z</time>
      </trkpt>
      <trkpt lat="42.71438" lon="1.66531">
        <ele>1039.803223</ele>
        <time>2013-06-16T09:19:17Z</time>
      </trkpt>
      <trkpt lat="42.7142" lon="1.66497">
        <ele>1044.12915</ele>
        <time>2013-06-16T09:19:46Z</time>
      </trkpt>
      <trkpt lat="42.71416" lon="1.66452">
        <ele>1047.493652</ele>
        <time>2013-06-16T09:20:21Z</time>
      </trkpt>
      <trkpt lat="42.71416" lon="1.66411">
        <ele>1051.81958</ele>
        <time>2013-06-16T09:20:56Z</time>
      </trkpt>
      <trkpt lat="42.71388" lon="1.66414">
        <ele>1057.106934</ele>
        <time>2013-06-16T09:21:30Z</time>
      </trkpt>
      <trkpt lat="42.71363" lon="1.66384">
        <ele>1060.952148</ele>
        <time>2013-06-16T09:22:06Z</time>
      </trkpt>
      <trkpt lat="42.71352" lon="1.66414">
        <ele>1059.990723</ele>
        <time>2013-06-16T09:22:38Z</time>
      </trkpt>
      <trkpt lat="42.71335" lon="1.66431">
        <ele>1056.145508</ele>
        <time>2013-06-16T09:23:02Z</time>
      </trkpt>
      <trkpt lat="42.7131" lon="1.66448">
        <ele>1055.184326</ele>
        <time>2013-06-16T09:23:53Z</time>
      </trkpt>
      <trkpt lat="42.71296" lon="1.6641">
        <ele>1064.31665</ele>
        <time>2013-06-16T09:24:44Z</time>
      </trkpt>
      <trkpt lat="42.71288" lon="1.66379">
        <ele>1073.929932</ele>
        <time>2013-06-16T09:25:43Z</time>
      </trkpt>
      <trkpt lat="42.71282" lon="1.66346">
        <ele>1091.233643</ele>
        <time>2013-06-16T09:27:46Z</time>
      </trkpt>
      <trkpt lat="42.71276" lon="1.66353">
        <ele>1100.846924</ele>
        <time>2013-06-16T09:28:51Z</time>
      </trkpt>
      <trkpt lat="42.71266" lon="1.66316">
        <ele>1111.421387</ele>
        <time>2013-06-16T09:30:05Z</time>
      </trkpt>
      <trkpt lat="42.71264" lon="1.66266">
        <ele>1114.785889</ele>
        <time>2013-06-16T09:31:00Z</time>
      </trkpt>
      <trkpt lat="42.71253" lon="1.66232">
        <ele>1126.80249</ele>
        <time>2013-06-16T09:32:16Z</time>
      </trkpt>
      <trkpt lat="42.71235" lon="1.66199">
        <ele>1134.012451</ele>
        <time>2013-06-16T09:33:05Z</time>
      </trkpt>
      <trkpt lat="42.71249" lon="1.66207">
        <ele>1134.493164</ele>
        <time>2013-06-16T09:34:18Z</time>
      </trkpt>
      <trkpt lat="42.71222" lon="1.66166">
        <ele>1146.028809</ele>
        <time>2013-06-16T09:35:19Z</time>
      </trkpt>
      <trkpt lat="42.71219" lon="1.66147">
        <ele>1152.758057</ele>
        <time>2013-06-16T09:36:59Z</time>
      </trkpt>
      <trkpt lat="42.71198" lon="1.66067">
        <ele>1190.72998</ele>
        <time>2013-06-16T09:41:06Z</time>
      </trkpt>
      <trkpt lat="42.71196" lon="1.65999">
        <ele>1212.359863</ele>
        <time>2013-06-16T09:43:23Z</time>
      </trkpt>
      <trkpt lat="42.7118" lon="1.65966">
        <ele>1229.663574</ele>
        <time>2013-06-16T09:45:27Z</time>
      </trkpt>
      <trkpt lat="42.7114" lon="1.65948">
        <ele>1236.873291</ele>
        <time>2013-06-16T09:46:40Z</time>
      </trkpt>
      <trkpt lat="42.71134" lon="1.65939">
        <ele>1244.083496</ele>
        <time>2013-06-16T09:47:33Z</time>
      </trkpt>
      <trkpt lat="42.71122" lon="1.65905">
        <ele>1258.50293</ele>
        <time>2013-06-16T09:49:13Z</time>
      </trkpt>
      <trkpt lat="42.71094" lon="1.65885">
        <ele>1271.961426</ele>
        <time>2013-06-16T09:50:49Z</time>
      </trkpt>
      <trkpt lat="42.71078" lon="1.65808">
        <ele>1298.397705</ele>
        <time>2013-06-16T09:53:32Z</time>
      </trkpt>
      <trkpt lat="42.71098" lon="1.65746">
        <ele>1315.220947</ele>
        <time>2013-06-16T09:55:49Z</time>
      </trkpt>
      <trkpt lat="42.71099" lon="1.65619">
        <ele>1325.314697</ele>
        <time>2013-06-16T09:59:00Z</time>
      </trkpt>
      <trkpt lat="42.71101" lon="1.65656">
        <ele>1328.19873</ele>
        <time>2013-06-16T10:07:23Z</time>
      </trkpt>
      <trkpt lat="42.71077" lon="1.65638">
        <ele>1337.811768</ele>
        <time>2013-06-16T10:08:36Z</time>
      </trkpt>
      <trkpt lat="42.71104" lon="1.65601">
        <ele>1343.099121</ele>
        <time>2013-06-16T10:09:16Z</time>
      </trkpt>
      <trkpt lat="42.71094" lon="1.65578">
        <ele>1357.999756</ele>
        <time>2013-06-16T10:10:57Z</time>
      </trkpt>
      <trkpt lat="42.71086" lon="1.65545">
        <ele>1367.13208</ele>
        <time>2013-06-16T10:12:10Z</time>
      </trkpt>
      <trkpt lat="42.71099" lon="1.65499">
        <ele>1377.226074</ele>
        <time>2013-06-16T10:13:20Z</time>
      </trkpt>
      <trkpt lat="42.71121" lon="1.65443">
        <ele>1386.838867</ele>
        <time>2013-06-16T10:14:39Z</time>
      </trkpt>
      <trkpt lat="42.71139" lon="1.65341">
        <ele>1401.739502</ele>
        <time>2013-06-16T10:16:54Z</time>
      </trkpt>
      <trkpt lat="42.71108" lon="1.65314">
        <ele>1402.700684</ele>
        <time>2013-06-16T10:18:27Z</time>
      </trkpt>
      <trkpt lat="42.71113" lon="1.6529">
        <ele>1403.662109</ele>
        <time>2013-06-16T10:19:00Z</time>
      </trkpt>
      <trkpt lat="42.7112" lon="1.65262">
        <ele>1404.143066</ele>
        <time>2013-06-16T10:19:24Z</time>
      </trkpt>
      <trkpt lat="42.71139" lon="1.65248">
        <ele>1404.143066</ele>
        <time>2013-06-16T10:19:55Z</time>
      </trkpt>
      <trkpt lat="42.71155" lon="1.65218">
        <ele>1407.988281</ele>
        <time>2013-06-16T10:20:39Z</time>
      </trkpt>
      <trkpt lat="42.71182" lon="1.65209">
        <ele>1413.275391</ele>
        <time>2013-06-16T10:21:18Z</time>
      </trkpt>
      <trkpt lat="42.71214" lon="1.65149">
        <ele>1425.772461</ele>
        <time>2013-06-16T10:23:09Z</time>
      </trkpt>
      <trkpt lat="42.71245" lon="1.65105">
        <ele>1432.982178</ele>
        <time>2013-06-16T10:24:13Z</time>
      </trkpt>
      <trkpt lat="42.7124" lon="1.65059">
        <ele>1439.230957</ele>
        <time>2013-06-16T10:25:03Z</time>
      </trkpt>
      <trkpt lat="42.71258" lon="1.65049">
        <ele>1440.192383</ele>
        <time>2013-06-16T10:27:47Z</time>
      </trkpt>
      <trkpt lat="42.71239" lon="1.6504">
        <ele>1444.998779</ele>
        <time>2013-06-16T10:28:43Z</time>
      </trkpt>
      <trkpt lat="42.71229" lon="1.65004">
        <ele>1450.286133</ele>
        <time>2013-06-16T10:29:32Z</time>
      </trkpt>
      <trkpt lat="42.71202" lon="1.64971">
        <ele>1455.573486</ele>
        <time>2013-06-16T10:30:18Z</time>
      </trkpt>
      <trkpt lat="42.71176" lon="1.64928">
        <ele>1458.457275</ele>
        <time>2013-06-16T10:31:13Z</time>
      </trkpt>
      <trkpt lat="42.71149" lon="1.64894">
        <ele>1463.263916</ele>
        <time>2013-06-16T10:32:11Z</time>
      </trkpt>
      <trkpt lat="42.71122" lon="1.64854">
        <ele>1467.5896</ele>
        <time>2013-06-16T10:33:00Z</time>
      </trkpt>
      <trkpt lat="42.711" lon="1.64813">
        <ele>1471.435059</ele>
        <time>2013-06-16T10:33:42Z</time>
      </trkpt>
      <trkpt lat="42.7107" lon="1.64788">
        <ele>1473.35791</ele>
        <time>2013-06-16T10:34:17Z</time>
      </trkpt>
      <trkpt lat="42.71061" lon="1.64758">
        <ele>1476.241699</ele>
        <time>2013-06-16T10:35:01Z</time>
      </trkpt>
      <trkpt lat="42.71038" lon="1.64742">
        <ele>1481.528809</ele>
        <time>2013-06-16T10:36:18Z</time>
      </trkpt>
      <trkpt lat="42.71031" lon="1.64702">
        <ele>1486.335693</ele>
        <time>2013-06-16T10:37:00Z</time>
      </trkpt>
      <trkpt lat="42.71007" lon="1.64695">
        <ele>1490.180908</ele>
        <time>2013-06-16T10:37:50Z</time>
      </trkpt>
      <trkpt lat="42.70988" lon="1.6467">
        <ele>1496.429443</ele>
        <time>2013-06-16T10:38:34Z</time>
      </trkpt>
      <trkpt lat="42.70945" lon="1.64652">
        <ele>1498.83252</ele>
        <time>2013-06-16T10:39:37Z</time>
      </trkpt>
      <trkpt lat="42.70913" lon="1.64627">
        <ele>1507.965332</ele>
        <time>2013-06-16T10:40:43Z</time>
      </trkpt>
      <trkpt lat="42.70894" lon="1.64608">
        <ele>1511.810547</ele>
        <time>2013-06-16T10:41:47Z</time>
      </trkpt>
      <trkpt lat="42.70883" lon="1.64589">
        <ele>1516.136475</ele>
        <time>2013-06-16T10:42:35Z</time>
      </trkpt>
      <trkpt lat="42.70854" lon="1.64556">
        <ele>1517.0979</ele>
        <time>2013-06-16T10:43:26Z</time>
      </trkpt>
      <trkpt lat="42.70826" lon="1.64541">
        <ele>1518.539795</ele>
        <time>2013-06-16T10:44:16Z</time>
      </trkpt>
      <trkpt lat="42.70811" lon="1.64506">
        <ele>1520.462402</ele>
        <time>2013-06-16T10:44:51Z</time>
      </trkpt>
      <trkpt lat="42.70791" lon="1.64499">
        <ele>1523.346436</ele>
        <time>2013-06-16T10:45:17Z</time>
      </trkpt>
      <trkpt lat="42.70775" lon="1.64445">
        <ele>1524.307617</ele>
        <time>2013-06-16T10:49:13Z</time>
      </trkpt>
      <trkpt lat="42.70756" lon="1.64466">
        <ele>1526.710938</ele>
        <time>2013-06-16T10:49:56Z</time>
      </trkpt>
      <trkpt lat="42.70736" lon="1.64457">
        <ele>1527.19165</ele>
        <time>2013-06-16T10:50:27Z</time>
      </trkpt>
      <trkpt lat="42.70731" lon="1.64428">
        <ele>1532.479004</ele>
        <time>2013-06-16T10:51:05Z</time>
      </trkpt>
      <trkpt lat="42.70709" lon="1.64404">
        <ele>1532.959473</ele>
        <time>2013-06-16T10:51:35Z</time>
      </trkpt>
      <trkpt lat="42.70691" lon="1.64391">
        <ele>1536.324219</ele>
        <time>2013-06-16T10:52:09Z</time>
      </trkpt>
      <trkpt lat="42.70676" lon="1.64376">
        <ele>1536.324219</ele>
        <time>2013-06-16T10:52:48Z</time>
      </trkpt>
      <trkpt lat="42.70677" lon="1.64357">
        <ele>1536.804688</ele>
        <time>2013-06-16T10:53:41Z</time>
      </trkpt>
      <trkpt lat="42.70666" lon="1.64324">
        <ele>1539.208008</ele>
        <time>2013-06-16T10:54:20Z</time>
      </trkpt>
      <trkpt lat="42.70654" lon="1.6431">
        <ele>1543.053223</ele>
        <time>2013-06-16T10:54:55Z</time>
      </trkpt>
      <trkpt lat="42.7063" lon="1.64315">
        <ele>1541.130615</ele>
        <time>2013-06-16T10:55:20Z</time>
      </trkpt>
      <trkpt lat="42.7061" lon="1.64309">
        <ele>1541.130615</ele>
        <time>2013-06-16T10:56:08Z</time>
      </trkpt>
      <trkpt lat="42.70599" lon="1.64278">
        <ele>1541.611328</ele>
        <time>2013-06-16T10:56:36Z</time>
      </trkpt>
      <trkpt lat="42.70583" lon="1.64259">
        <ele>1544.97583</ele>
        <time>2013-06-16T10:57:01Z</time>
      </trkpt>
      <trkpt lat="42.70571" lon="1.64238">
        <ele>1544.014648</ele>
        <time>2013-06-16T10:57:24Z</time>
      </trkpt>
      <trkpt lat="42.70555" lon="1.64221">
        <ele>1546.898438</ele>
        <time>2013-06-16T10:57:47Z</time>
      </trkpt>
      <trkpt lat="42.70534" lon="1.64206">
        <ele>1549.302002</ele>
        <time>2013-06-16T10:58:19Z</time>
      </trkpt>
      <trkpt lat="42.70541" lon="1.64215">
        <ele>1549.302002</ele>
        <time>2013-06-16T11:00:11Z</time>
      </trkpt>
      <trkpt lat="42.70534" lon="1.64205">
        <ele>1554.108643</ele>
        <time>2013-06-16T11:08:07Z</time>
      </trkpt>
      <trkpt lat="42.70521" lon="1.64227">
        <ele>1554.589111</ele>
        <time>2013-06-16T11:09:01Z</time>
      </trkpt>
      <trkpt lat="42.70504" lon="1.64219">
        <ele>1555.550537</ele>
        <time>2013-06-16T11:09:28Z</time>
      </trkpt>
      <trkpt lat="42.70493" lon="1.64189">
        <ele>1557.953857</ele>
        <time>2013-06-16T11:10:07Z</time>
      </trkpt>
      <trkpt lat="42.70464" lon="1.6418">
        <ele>1562.760254</ele>
        <time>2013-06-16T11:10:59Z</time>
      </trkpt>
      <trkpt lat="42.70453" lon="1.64166">
        <ele>1567.086426</ele>
        <time>2013-06-16T11:11:35Z</time>
      </trkpt>
      <trkpt lat="42.70435" lon="1.64143">
        <ele>1576.21875</ele>
        <time>2013-06-16T11:12:28Z</time>
      </trkpt>
      <trkpt lat="42.70427" lon="1.64115">
        <ele>1583.909424</ele>
        <time>2013-06-16T11:13:21Z</time>
      </trkpt>
      <trkpt lat="42.70416" lon="1.64092">
        <ele>1589.196533</ele>
        <time>2013-06-16T11:14:02Z</time>
      </trkpt>
      <trkpt lat="42.70394" lon="1.64083">
        <ele>1590.157959</ele>
        <time>2013-06-16T11:14:40Z</time>
      </trkpt>
      <trkpt lat="42.70381" lon="1.64062">
        <ele>1590.157959</ele>
        <time>2013-06-16T11:15:39Z</time>
      </trkpt>
      <trkpt lat="42.70359" lon="1.64038">
        <ele>1589.196533</ele>
        <time>2013-06-16T11:16:26Z</time>
      </trkpt>
      <trkpt lat="42.70339" lon="1.64025">
        <ele>1586.312744</ele>
        <time>2013-06-16T11:16:53Z</time>
      </trkpt>
      <trkpt lat="42.70313" lon="1.63998">
        <ele>1586.312744</ele>
        <time>2013-06-16T11:17:45Z</time>
      </trkpt>
      <trkpt lat="42.70312" lon="1.63965">
        <ele>1586.312744</ele>
        <time>2013-06-16T11:18:37Z</time>
      </trkpt>
      <trkpt lat="42.70313" lon="1.6393">
        <ele>1588.235352</ele>
        <time>2013-06-16T11:18:57Z</time>
      </trkpt>
      <trkpt lat="42.7031" lon="1.63907">
        <ele>1588.716064</ele>
        <time>2013-06-16T11:19:19Z</time>
      </trkpt>
      <trkpt lat="42.7032" lon="1.63879">
        <ele>1588.235352</ele>
        <time>2013-06-16T11:19:45Z</time>
      </trkpt>
      <trkpt lat="42.7032" lon="1.63851">
        <ele>1587.273926</ele>
        <time>2013-06-16T11:20:10Z</time>
      </trkpt>
      <trkpt lat="42.70319" lon="1.63819">
        <ele>1589.677246</ele>
        <time>2013-06-16T11:20:33Z</time>
      </trkpt>
      <trkpt lat="42.70315" lon="1.63789">
        <ele>1590.157959</ele>
        <time>2013-06-16T11:21:00Z</time>
      </trkpt>
      <trkpt lat="42.70315" lon="1.63763">
        <ele>1591.119141</ele>
        <time>2013-06-16T11:21:18Z</time>
      </trkpt>
      <trkpt lat="42.70319" lon="1.6374">
        <ele>1591.599854</ele>
        <time>2013-06-16T11:21:40Z</time>
      </trkpt>
      <trkpt lat="42.7032" lon="1.63709">
        <ele>1593.522461</ele>
        <time>2013-06-16T11:22:03Z</time>
      </trkpt>
      <trkpt lat="42.70326" lon="1.63685">
        <ele>1594.483643</ele>
        <time>2013-06-16T11:22:22Z</time>
      </trkpt>
      <trkpt lat="42.70321" lon="1.63651">
        <ele>1595.445068</ele>
        <time>2013-06-16T11:23:35Z</time>
      </trkpt>
      <trkpt lat="42.70322" lon="1.63623">
        <ele>1596.887207</ele>
        <time>2013-06-16T11:24:06Z</time>
      </trkpt>
      <trkpt lat="42.70315" lon="1.63598">
        <ele>1597.848633</ele>
        <time>2013-06-16T11:24:24Z</time>
      </trkpt>
      <trkpt lat="42.70322" lon="1.63566">
        <ele>1598.809814</ele>
        <time>2013-06-16T11:24:49Z</time>
      </trkpt>
      <trkpt lat="42.70312" lon="1.63545">
        <ele>1600.251953</ele>
        <time>2013-06-16T11:25:24Z</time>
      </trkpt>
      <trkpt lat="42.70312" lon="1.63515">
        <ele>1603.135742</ele>
        <time>2013-06-16T11:26:11Z</time>
      </trkpt>
      <trkpt lat="42.70307" lon="1.63484">
        <ele>1605.05835</ele>
        <time>2013-06-16T11:26:32Z</time>
      </trkpt>
      <trkpt lat="42.70307" lon="1.63453">
        <ele>1606.980957</ele>
        <time>2013-06-16T11:26:52Z</time>
      </trkpt>
      <trkpt lat="42.70308" lon="1.63424">
        <ele>1605.539063</ele>
        <time>2013-06-16T11:27:22Z</time>
      </trkpt>
      <trkpt lat="42.70312" lon="1.63397">
        <ele>1606.500244</ele>
        <time>2013-06-16T11:27:43Z</time>
      </trkpt>
      <trkpt lat="42.70314" lon="1.63369">
        <ele>1610.345459</ele>
        <time>2013-06-16T11:28:15Z</time>
      </trkpt>
      <trkpt lat="42.70328" lon="1.63345">
        <ele>1612.749023</ele>
        <time>2013-06-16T11:28:41Z</time>
      </trkpt>
      <trkpt lat="42.70331" lon="1.63314">
        <ele>1618.036133</ele>
        <time>2013-06-16T11:29:17Z</time>
      </trkpt>
      <trkpt lat="42.70331" lon="1.63289">
        <ele>1620.439453</ele>
        <time>2013-06-16T11:29:39Z</time>
      </trkpt>
      <trkpt lat="42.70324" lon="1.63268">
        <ele>1621.881348</ele>
        <time>2013-06-16T11:30:02Z</time>
      </trkpt>
      <trkpt lat="42.70321" lon="1.63271">
        <ele>1620.920166</ele>
        <time>2013-06-16T11:30:49Z</time>
      </trkpt>
      <trkpt lat="42.70317" lon="1.63264">
        <ele>1622.362061</ele>
        <time>2013-06-16T11:33:45Z</time>
      </trkpt>
      <trkpt lat="42.70336" lon="1.63263">
        <ele>1619.95874</ele>
        <time>2013-06-16T11:35:57Z</time>
      </trkpt>
      <trkpt lat="42.70347" lon="1.63247">
        <ele>1618.997559</ele>
        <time>2013-06-16T11:36:21Z</time>
      </trkpt>
      <trkpt lat="42.70363" lon="1.63238">
        <ele>1620.439453</ele>
        <time>2013-06-16T11:36:46Z</time>
      </trkpt>
      <trkpt lat="42.7038" lon="1.63237">
        <ele>1624.284668</ele>
        <time>2013-06-16T11:37:14Z</time>
      </trkpt>
      <trkpt lat="42.7039" lon="1.63239">
        <ele>1627.168701</ele>
        <time>2013-06-16T11:37:58Z</time>
      </trkpt>
      <trkpt lat="42.70418" lon="1.63249">
        <ele>1642.069092</ele>
        <time>2013-06-16T11:40:10Z</time>
      </trkpt>
      <trkpt lat="42.70442" lon="1.63238">
        <ele>1651.682373</ele>
        <time>2013-06-16T11:41:21Z</time>
      </trkpt>
      <trkpt lat="42.70452" lon="1.63252">
        <ele>1653.60498</ele>
        <time>2013-06-16T11:41:52Z</time>
      </trkpt>
      <trkpt lat="42.7048" lon="1.63257">
        <ele>1662.737549</ele>
        <time>2013-06-16T11:42:55Z</time>
      </trkpt>
      <trkpt lat="42.70493" lon="1.63257">
        <ele>1667.063477</ele>
        <time>2013-06-16T11:43:43Z</time>
      </trkpt>
      <trkpt lat="42.70509" lon="1.63262">
        <ele>1668.986084</ele>
        <time>2013-06-16T11:44:12Z</time>
      </trkpt>
      <trkpt lat="42.70517" lon="1.63283">
        <ele>1671.869873</ele>
        <time>2013-06-16T11:44:44Z</time>
      </trkpt>
      <trkpt lat="42.70526" lon="1.63304">
        <ele>1677.157471</ele>
        <time>2013-06-16T11:45:56Z</time>
      </trkpt>
      <trkpt lat="42.70531" lon="1.63322">
        <ele>1680.521973</ele>
        <time>2013-06-16T11:46:26Z</time>
      </trkpt>
      <trkpt lat="42.70538" lon="1.63337">
        <ele>1684.8479</ele>
        <time>2013-06-16T11:47:14Z</time>
      </trkpt>
      <trkpt lat="42.7056" lon="1.63345">
        <ele>1692.057861</ele>
        <time>2013-06-16T11:48:29Z</time>
      </trkpt>
      <trkpt lat="42.70561" lon="1.63359">
        <ele>1691.576904</ele>
        <time>2013-06-16T11:51:27Z</time>
      </trkpt>
      <trkpt lat="42.70566" lon="1.6338">
        <ele>1692.538574</ele>
        <time>2013-06-16T11:51:50Z</time>
      </trkpt>
      <trkpt lat="42.70571" lon="1.634">
        <ele>1696.383789</ele>
        <time>2013-06-16T11:52:19Z</time>
      </trkpt>
      <trkpt lat="42.70575" lon="1.63421">
        <ele>1700.709473</ele>
        <time>2013-06-16T11:52:44Z</time>
      </trkpt>
      <trkpt lat="42.70577" lon="1.63442">
        <ele>1702.63208</ele>
        <time>2013-06-16T11:53:11Z</time>
      </trkpt>
      <trkpt lat="42.70577" lon="1.63465">
        <ele>1706.958008</ele>
        <time>2013-06-16T11:53:38Z</time>
      </trkpt>
      <trkpt lat="42.70587" lon="1.63483">
        <ele>1712.245361</ele>
        <time>2013-06-16T11:54:26Z</time>
      </trkpt>
      <trkpt lat="42.70601" lon="1.63502">
        <ele>1716.571289</ele>
        <time>2013-06-16T11:54:57Z</time>
      </trkpt>
      <trkpt lat="42.70606" lon="1.63522">
        <ele>1719.935791</ele>
        <time>2013-06-16T11:55:28Z</time>
      </trkpt>
      <trkpt lat="42.70611" lon="1.63544">
        <ele>1723.781006</ele>
        <time>2013-06-16T11:55:57Z</time>
      </trkpt>
      <trkpt lat="42.70619" lon="1.63563">
        <ele>1727.626465</ele>
        <time>2013-06-16T11:56:47Z</time>
      </trkpt>
      <trkpt lat="42.70634" lon="1.63573">
        <ele>1732.913574</ele>
        <time>2013-06-16T11:57:18Z</time>
      </trkpt>
      <trkpt lat="42.70653" lon="1.63578">
        <ele>1739.162109</ele>
        <time>2013-06-16T11:58:06Z</time>
      </trkpt>
      <trkpt lat="42.70671" lon="1.63577">
        <ele>1743.968994</ele>
        <time>2013-06-16T11:58:40Z</time>
      </trkpt>
      <trkpt lat="42.70686" lon="1.63592">
        <ele>1748.775391</ele>
        <time>2013-06-16T11:59:09Z</time>
      </trkpt>
      <trkpt lat="42.7069" lon="1.63613">
        <ele>1750.217529</ele>
        <time>2013-06-16T12:02:10Z</time>
      </trkpt>
      <trkpt lat="42.707" lon="1.63631">
        <ele>1752.620605</ele>
        <time>2013-06-16T12:02:32Z</time>
      </trkpt>
      <trkpt lat="42.70714" lon="1.63644">
        <ele>1758.388672</ele>
        <time>2013-06-16T12:03:02Z</time>
      </trkpt>
      <trkpt lat="42.70727" lon="1.63628">
        <ele>1761.753418</ele>
        <time>2013-06-16T12:03:33Z</time>
      </trkpt>
      <trkpt lat="42.70739" lon="1.63612">
        <ele>1764.637207</ele>
        <time>2013-06-16T12:03:58Z</time>
      </trkpt>
      <trkpt lat="42.70748" lon="1.63617">
        <ele>1768.963135</ele>
        <time>2013-06-16T12:05:37Z</time>
      </trkpt>
      <trkpt lat="42.70756" lon="1.63638">
        <ele>1772.327881</ele>
        <time>2013-06-16T12:06:05Z</time>
      </trkpt>
      <trkpt lat="42.70766" lon="1.63661">
        <ele>1773.289307</ele>
        <time>2013-06-16T12:06:49Z</time>
      </trkpt>
      <trkpt lat="42.70769" lon="1.63689">
        <ele>1776.653809</ele>
        <time>2013-06-16T12:07:12Z</time>
      </trkpt>
      <trkpt lat="42.70773" lon="1.63715">
        <ele>1781.460205</ele>
        <time>2013-06-16T12:07:39Z</time>
      </trkpt>
      <trkpt lat="42.70785" lon="1.63735">
        <ele>1785.30542</ele>
        <time>2013-06-16T12:08:06Z</time>
      </trkpt>
      <trkpt lat="42.70799" lon="1.63756">
        <ele>1787.228027</ele>
        <time>2013-06-16T12:08:30Z</time>
      </trkpt>
      <trkpt lat="42.70815" lon="1.63768">
        <ele>1792.034912</ele>
        <time>2013-06-16T12:09:00Z</time>
      </trkpt>
      <trkpt lat="42.70826" lon="1.63777">
        <ele>1794.918701</ele>
        <time>2013-06-16T12:11:49Z</time>
      </trkpt>
      <trkpt lat="42.70843" lon="1.63714">
        <ele>1825.680908</ele>
        <time>2013-06-16T12:17:26Z</time>
      </trkpt>
      <trkpt lat="42.70848" lon="1.63701">
        <ele>1815.587158</ele>
        <time>2013-06-16T12:19:48Z</time>
      </trkpt>
      <trkpt lat="42.70857" lon="1.6368">
        <ele>1816.54834</ele>
        <time>2013-06-16T12:20:08Z</time>
      </trkpt>
      <trkpt lat="42.70866" lon="1.6366">
        <ele>1815.587158</ele>
        <time>2013-06-16T12:20:26Z</time>
      </trkpt>
      <trkpt lat="42.70872" lon="1.63637">
        <ele>1816.54834</ele>
        <time>2013-06-16T12:20:46Z</time>
      </trkpt>
      <trkpt lat="42.70889" lon="1.63622">
        <ele>1820.393799</ele>
        <time>2013-06-16T12:21:14Z</time>
      </trkpt>
      <trkpt lat="42.70907" lon="1.63615">
        <ele>1820.874512</ele>
        <time>2013-06-16T12:21:41Z</time>
      </trkpt>
      <trkpt lat="42.70923" lon="1.63625">
        <ele>1824.239014</ele>
        <time>2013-06-16T12:22:06Z</time>
      </trkpt>
      <trkpt lat="42.70941" lon="1.63635">
        <ele>1827.603516</ele>
        <time>2013-06-16T12:22:32Z</time>
      </trkpt>
      <trkpt lat="42.70962" lon="1.63638">
        <ele>1830.968262</ele>
        <time>2013-06-16T12:22:56Z</time>
      </trkpt>
      <trkpt lat="42.70982" lon="1.63647">
        <ele>1833.371338</ele>
        <time>2013-06-16T12:23:21Z</time>
      </trkpt>
      <trkpt lat="42.71001" lon="1.63651">
        <ele>1834.332764</ele>
        <time>2013-06-16T12:23:43Z</time>
      </trkpt>
      <trkpt lat="42.71019" lon="1.6365">
        <ele>1834.332764</ele>
        <time>2013-06-16T12:24:04Z</time>
      </trkpt>
      <trkpt lat="42.7104" lon="1.63653">
        <ele>1835.293945</ele>
        <time>2013-06-16T12:24:24Z</time>
      </trkpt>
      <trkpt lat="42.71056" lon="1.63656">
        <ele>1835.774658</ele>
        <time>2013-06-16T12:24:48Z</time>
      </trkpt>
      <trkpt lat="42.71071" lon="1.63654">
        <ele>1837.216797</ele>
        <time>2013-06-16T12:26:15Z</time>
      </trkpt>
      <trkpt lat="42.71081" lon="1.63648">
        <ele>1839.620117</ele>
        <time>2013-06-16T12:28:33Z</time>
      </trkpt>
      <trkpt lat="42.71094" lon="1.63633">
        <ele>1842.984619</ele>
        <time>2013-06-16T12:28:58Z</time>
      </trkpt>
      <trkpt lat="42.71112" lon="1.63622">
        <ele>1844.907227</ele>
        <time>2013-06-16T12:29:23Z</time>
      </trkpt>
      <trkpt lat="42.71129" lon="1.63614">
        <ele>1847.79126</ele>
        <time>2013-06-16T12:29:55Z</time>
      </trkpt>
      <trkpt lat="42.71148" lon="1.63605">
        <ele>1849.713867</ele>
        <time>2013-06-16T12:30:18Z</time>
      </trkpt>
      <trkpt lat="42.71165" lon="1.63594">
        <ele>1852.117188</ele>
        <time>2013-06-16T12:30:45Z</time>
      </trkpt>
      <trkpt lat="42.71183" lon="1.63584">
        <ele>1853.559326</ele>
        <time>2013-06-16T12:31:05Z</time>
      </trkpt>
      <trkpt lat="42.71197" lon="1.63581">
        <ele>1850.19458</ele>
        <time>2013-06-16T12:32:41Z</time>
      </trkpt>
      <trkpt lat="42.71216" lon="1.63585">
        <ele>1852.117188</ele>
        <time>2013-06-16T12:33:08Z</time>
      </trkpt>
      <trkpt lat="42.71234" lon="1.63579">
        <ele>1851.155762</ele>
        <time>2013-06-16T12:33:24Z</time>
      </trkpt>
      <trkpt lat="42.71253" lon="1.63576">
        <ele>1853.078613</ele>
        <time>2013-06-16T12:33:47Z</time>
      </trkpt>
      <trkpt lat="42.71273" lon="1.63575">
        <ele>1853.078613</ele>
        <time>2013-06-16T12:34:04Z</time>
      </trkpt>
      <trkpt lat="42.71289" lon="1.63571">
        <ele>1856.443115</ele>
        <time>2013-06-16T12:34:36Z</time>
      </trkpt>
      <trkpt lat="42.71307" lon="1.63564">
        <ele>1859.327148</ele>
        <time>2013-06-16T12:35:07Z</time>
      </trkpt>
      <trkpt lat="42.71324" lon="1.63553">
        <ele>1862.69165</ele>
        <time>2013-06-16T12:35:31Z</time>
      </trkpt>
      <trkpt lat="42.71343" lon="1.63544">
        <ele>1860.769043</ele>
        <time>2013-06-16T12:35:54Z</time>
      </trkpt>
      <trkpt lat="42.7136" lon="1.63539">
        <ele>1859.327148</ele>
        <time>2013-06-16T12:36:53Z</time>
      </trkpt>
      <trkpt lat="42.71379" lon="1.63536">
        <ele>1857.404541</ele>
        <time>2013-06-16T12:37:15Z</time>
      </trkpt>
      <trkpt lat="42.71385" lon="1.63513">
        <ele>1856.443115</ele>
        <time>2013-06-16T12:37:40Z</time>
      </trkpt>
      <trkpt lat="42.71387" lon="1.63487">
        <ele>1855.481934</ele>
        <time>2013-06-16T12:38:04Z</time>
      </trkpt>
      <trkpt lat="42.7138" lon="1.63458">
        <ele>1856.923828</ele>
        <time>2013-06-16T12:38:33Z</time>
      </trkpt>
      <trkpt lat="42.71379" lon="1.6343">
        <ele>1858.846436</ele>
        <time>2013-06-16T12:39:14Z</time>
      </trkpt>
      <trkpt lat="42.71371" lon="1.63391">
        <ele>1856.923828</ele>
        <time>2013-06-16T12:39:50Z</time>
      </trkpt>
      <trkpt lat="42.71369" lon="1.63349">
        <ele>1855.481934</ele>
        <time>2013-06-16T12:40:54Z</time>
      </trkpt>
      <trkpt lat="42.71367" lon="1.63364">
        <ele>1855.962402</ele>
        <time>2013-06-16T12:43:51Z</time>
      </trkpt>
      <trkpt lat="42.71355" lon="1.63379">
        <ele>1863.172363</ele>
        <time>2013-06-16T12:44:26Z</time>
      </trkpt>
      <trkpt lat="42.71335" lon="1.63374">
        <ele>1870.382324</ele>
        <time>2013-06-16T12:45:09Z</time>
      </trkpt>
      <trkpt lat="42.7132" lon="1.63363">
        <ele>1874.708252</ele>
        <time>2013-06-16T12:46:12Z</time>
      </trkpt>
      <trkpt lat="42.71306" lon="1.63367">
        <ele>1880.476074</ele>
        <time>2013-06-16T12:46:48Z</time>
      </trkpt>
      <trkpt lat="42.71296" lon="1.63351">
        <ele>1883.359863</ele>
        <time>2013-06-16T12:48:05Z</time>
      </trkpt>
      <trkpt lat="42.71291" lon="1.63324">
        <ele>1884.321533</ele>
        <time>2013-06-16T12:48:31Z</time>
      </trkpt>
      <trkpt lat="42.71283" lon="1.63299">
        <ele>1885.282715</ele>
        <time>2013-06-16T12:48:58Z</time>
      </trkpt>
      <trkpt lat="42.71272" lon="1.63279">
        <ele>1888.166748</ele>
        <time>2013-06-16T12:49:22Z</time>
      </trkpt>
      <trkpt lat="42.71263" lon="1.63256">
        <ele>1890.089355</ele>
        <time>2013-06-16T12:49:42Z</time>
      </trkpt>
      <trkpt lat="42.71253" lon="1.63236">
        <ele>1891.050537</ele>
        <time>2013-06-16T12:50:00Z</time>
      </trkpt>
      <trkpt lat="42.71247" lon="1.63212">
        <ele>1893.93457</ele>
        <time>2013-06-16T12:50:20Z</time>
      </trkpt>
      <trkpt lat="42.7124" lon="1.63183">
        <ele>1894.415039</ele>
        <time>2013-06-16T12:50:42Z</time>
      </trkpt>
      <trkpt lat="42.71238" lon="1.63157">
        <ele>1894.415039</ele>
        <time>2013-06-16T12:51:01Z</time>
      </trkpt>
      <trkpt lat="42.71233" lon="1.6313">
        <ele>1894.415039</ele>
        <time>2013-06-16T12:51:18Z</time>
      </trkpt>
      <trkpt lat="42.71232" lon="1.63101">
        <ele>1894.415039</ele>
        <time>2013-06-16T12:51:35Z</time>
      </trkpt>
      <trkpt lat="42.71229" lon="1.63076">
        <ele>1892.973145</ele>
        <time>2013-06-16T12:51:54Z</time>
      </trkpt>
      <trkpt lat="42.71227" lon="1.63053">
        <ele>1893.453857</ele>
        <time>2013-06-16T12:52:12Z</time>
      </trkpt>
      <trkpt lat="42.71224" lon="1.63027">
        <ele>1892.492676</ele>
        <time>2013-06-16T12:52:31Z</time>
      </trkpt>
      <trkpt lat="42.71216" lon="1.62997">
        <ele>1892.492676</ele>
        <time>2013-06-16T12:52:48Z</time>
      </trkpt>
      <trkpt lat="42.71206" lon="1.6297">
        <ele>1892.973145</ele>
        <time>2013-06-16T12:53:07Z</time>
      </trkpt>
      <trkpt lat="42.71192" lon="1.6295">
        <ele>1894.415039</ele>
        <time>2013-06-16T12:53:24Z</time>
      </trkpt>
      <trkpt lat="42.71178" lon="1.62931">
        <ele>1894.415039</ele>
        <time>2013-06-16T12:53:42Z</time>
      </trkpt>
      <trkpt lat="42.71166" lon="1.62912">
        <ele>1894.415039</ele>
        <time>2013-06-16T12:53:59Z</time>
      </trkpt>
      <trkpt lat="42.71149" lon="1.62904">
        <ele>1893.93457</ele>
        <time>2013-06-16T12:54:22Z</time>
      </trkpt>
      <trkpt lat="42.71132" lon="1.629">
        <ele>1892.011963</ele>
        <time>2013-06-16T12:54:40Z</time>
      </trkpt>
      <trkpt lat="42.71113" lon="1.62895">
        <ele>1890.569824</ele>
        <time>2013-06-16T12:55:00Z</time>
      </trkpt>
      <trkpt lat="42.71092" lon="1.62892">
        <ele>1889.12793</ele>
        <time>2013-06-16T12:55:21Z</time>
      </trkpt>
      <trkpt lat="42.71073" lon="1.62886">
        <ele>1889.12793</ele>
        <time>2013-06-16T12:55:43Z</time>
      </trkpt>
      <trkpt lat="42.71052" lon="1.62879">
        <ele>1888.166748</ele>
        <time>2013-06-16T12:56:02Z</time>
      </trkpt>
      <trkpt lat="42.71036" lon="1.62873">
        <ele>1886.244141</ele>
        <time>2013-06-16T12:56:20Z</time>
      </trkpt>
      <trkpt lat="42.71017" lon="1.62872">
        <ele>1884.802246</ele>
        <time>2013-06-16T12:56:41Z</time>
      </trkpt>
      <trkpt lat="42.71016" lon="1.62855">
        <ele>1882.87915</ele>
        <time>2013-06-16T12:57:47Z</time>
      </trkpt>
      <trkpt lat="42.71017" lon="1.62832">
        <ele>1877.592041</ele>
        <time>2013-06-16T12:59:23Z</time>
      </trkpt>
      <trkpt lat="42.71013" lon="1.62808">
        <ele>1874.227539</ele>
        <time>2013-06-16T12:59:45Z</time>
      </trkpt>
      <trkpt lat="42.71011" lon="1.62784">
        <ele>1871.824219</ele>
        <time>2013-06-16T13:00:04Z</time>
      </trkpt>
      <trkpt lat="42.71004" lon="1.62761">
        <ele>1869.421143</ele>
        <time>2013-06-16T13:00:23Z</time>
      </trkpt>
      <trkpt lat="42.71" lon="1.62738">
        <ele>1867.498047</ele>
        <time>2013-06-16T13:00:40Z</time>
      </trkpt>
      <trkpt lat="42.70994" lon="1.62714">
        <ele>1866.536865</ele>
        <time>2013-06-16T13:00:59Z</time>
      </trkpt>
      <trkpt lat="42.7099" lon="1.62692">
        <ele>1865.094971</ele>
        <time>2013-06-16T13:01:16Z</time>
      </trkpt>
      <trkpt lat="42.70982" lon="1.62671">
        <ele>1864.133545</ele>
        <time>2013-06-16T13:01:31Z</time>
      </trkpt>
      <trkpt lat="42.7098" lon="1.62645">
        <ele>1864.133545</ele>
        <time>2013-06-16T13:01:48Z</time>
      </trkpt>
      <trkpt lat="42.70976" lon="1.6262">
        <ele>1865.575684</ele>
        <time>2013-06-16T13:02:09Z</time>
      </trkpt>
      <trkpt lat="42.70968" lon="1.62594">
        <ele>1865.094971</ele>
        <time>2013-06-16T13:02:26Z</time>
      </trkpt>
      <trkpt lat="42.70964" lon="1.62573">
        <ele>1865.094971</ele>
        <time>2013-06-16T13:02:41Z</time>
      </trkpt>
      <trkpt lat="42.70962" lon="1.6255">
        <ele>1865.094971</ele>
        <time>2013-06-16T13:02:58Z</time>
      </trkpt>
      <trkpt lat="42.70964" lon="1.62524">
        <ele>1866.056152</ele>
        <time>2013-06-16T13:03:18Z</time>
      </trkpt>
      <trkpt lat="42.70963" lon="1.62498">
        <ele>1866.536865</ele>
        <time>2013-06-16T13:03:35Z</time>
      </trkpt>
      <trkpt lat="42.7096" lon="1.62471">
        <ele>1866.536865</ele>
        <time>2013-06-16T13:03:52Z</time>
      </trkpt>
      <trkpt lat="42.70953" lon="1.62445">
        <ele>1866.536865</ele>
        <time>2013-06-16T13:04:10Z</time>
      </trkpt>
      <trkpt lat="42.70949" lon="1.62417">
        <ele>1867.017578</ele>
        <time>2013-06-16T13:04:27Z</time>
      </trkpt>
      <trkpt lat="42.70946" lon="1.62393">
        <ele>1867.017578</ele>
        <time>2013-06-16T13:04:44Z</time>
      </trkpt>
      <trkpt lat="42.70956" lon="1.62369">
        <ele>1864.614258</ele>
        <time>2013-06-16T13:05:12Z</time>
      </trkpt>
      <trkpt lat="42.70977" lon="1.6237">
        <ele>1860.769043</ele>
        <time>2013-06-16T13:05:43Z</time>
      </trkpt>
      <trkpt lat="42.70994" lon="1.62381">
        <ele>1856.923828</ele>
        <time>2013-06-16T13:06:05Z</time>
      </trkpt>
      <trkpt lat="42.70995" lon="1.62377">
        <ele>1856.443115</ele>
        <time>2013-06-16T13:06:56Z</time>
      </trkpt>
      <trkpt lat="42.7099" lon="1.62378">
        <ele>1858.365723</ele>
        <time>2013-06-16T13:11:42Z</time>
      </trkpt>
      <trkpt lat="42.70996" lon="1.62381">
        <ele>1855.962402</ele>
        <time>2013-06-16T13:48:16Z</time>
      </trkpt>
      <trkpt lat="42.70969" lon="1.6239">
        <ele>1860.769043</ele>
        <time>2013-06-16T14:18:22Z</time>
      </trkpt>
      <trkpt lat="42.70954" lon="1.624">
        <ele>1863.652832</ele>
        <time>2013-06-16T14:18:49Z</time>
      </trkpt>
      <trkpt lat="42.70935" lon="1.62403">
        <ele>1866.536865</ele>
        <time>2013-06-16T14:19:15Z</time>
      </trkpt>
      <trkpt lat="42.70917" lon="1.62403">
        <ele>1869.421143</ele>
        <time>2013-06-16T14:19:43Z</time>
      </trkpt>
      <trkpt lat="42.70898" lon="1.624">
        <ele>1872.304932</ele>
        <time>2013-06-16T14:20:13Z</time>
      </trkpt>
      <trkpt lat="42.70893" lon="1.62387">
        <ele>1874.227539</ele>
        <time>2013-06-16T14:21:32Z</time>
      </trkpt>
      <trkpt lat="42.70897" lon="1.62364">
        <ele>1877.592041</ele>
        <time>2013-06-16T14:21:55Z</time>
      </trkpt>
      <trkpt lat="42.70895" lon="1.62341">
        <ele>1880.956787</ele>
        <time>2013-06-16T14:22:43Z</time>
      </trkpt>
      <trkpt lat="42.70892" lon="1.62316">
        <ele>1883.840576</ele>
        <time>2013-06-16T14:23:09Z</time>
      </trkpt>
      <trkpt lat="42.70886" lon="1.62293">
        <ele>1887.686035</ele>
        <time>2013-06-16T14:24:05Z</time>
      </trkpt>
      <trkpt lat="42.70878" lon="1.62274">
        <ele>1892.492676</ele>
        <time>2013-06-16T14:24:33Z</time>
      </trkpt>
      <trkpt lat="42.70872" lon="1.6225">
        <ele>1898.740967</ele>
        <time>2013-06-16T14:25:06Z</time>
      </trkpt>
      <trkpt lat="42.70869" lon="1.62225">
        <ele>1903.067139</ele>
        <time>2013-06-16T14:25:45Z</time>
      </trkpt>
      <trkpt lat="42.70867" lon="1.62202">
        <ele>1905.950928</ele>
        <time>2013-06-16T14:26:13Z</time>
      </trkpt>
      <trkpt lat="42.7087" lon="1.62171">
        <ele>1910.276855</ele>
        <time>2013-06-16T14:26:41Z</time>
      </trkpt>
      <trkpt lat="42.70868" lon="1.62135">
        <ele>1916.044922</ele>
        <time>2013-06-16T14:27:50Z</time>
      </trkpt>
      <trkpt lat="42.70864" lon="1.6212">
        <ele>1917.006348</ele>
        <time>2013-06-16T14:29:02Z</time>
      </trkpt>
      <trkpt lat="42.70869" lon="1.62153">
        <ele>1912.680176</ele>
        <time>2013-06-16T14:30:56Z</time>
      </trkpt>
      <trkpt lat="42.70881" lon="1.62165">
        <ele>1906.431641</ele>
        <time>2013-06-16T14:33:15Z</time>
      </trkpt>
      <trkpt lat="42.70895" lon="1.62176">
        <ele>1898.260254</ele>
        <time>2013-06-16T14:33:41Z</time>
      </trkpt>
      <trkpt lat="42.7091" lon="1.62193">
        <ele>1888.647461</ele>
        <time>2013-06-16T14:34:39Z</time>
      </trkpt>
      <trkpt lat="42.7092" lon="1.62201">
        <ele>1880.956787</ele>
        <time>2013-06-16T14:35:28Z</time>
      </trkpt>
      <trkpt lat="42.70927" lon="1.62184">
        <ele>1877.111572</ele>
        <time>2013-06-16T14:36:10Z</time>
      </trkpt>
      <trkpt lat="42.70933" lon="1.62159">
        <ele>1875.669434</ele>
        <time>2013-06-16T14:36:29Z</time>
      </trkpt>
      <trkpt lat="42.70932" lon="1.62136">
        <ele>1876.150146</ele>
        <time>2013-06-16T14:36:52Z</time>
      </trkpt>
      <trkpt lat="42.70936" lon="1.62109">
        <ele>1873.266357</ele>
        <time>2013-06-16T14:37:13Z</time>
      </trkpt>
      <trkpt lat="42.70938" lon="1.6211">
        <ele>1873.746826</ele>
        <time>2013-06-16T14:37:53Z</time>
      </trkpt>
      <trkpt lat="42.70936" lon="1.62135">
        <ele>1876.630859</ele>
        <time>2013-06-16T14:38:34Z</time>
      </trkpt>
      <trkpt lat="42.70934" lon="1.62161">
        <ele>1875.669434</ele>
        <time>2013-06-16T14:39:03Z</time>
      </trkpt>
      <trkpt lat="42.70926" lon="1.62187">
        <ele>1878.553467</ele>
        <time>2013-06-16T14:39:29Z</time>
      </trkpt>
      <trkpt lat="42.70924" lon="1.62211">
        <ele>1879.995361</ele>
        <time>2013-06-16T14:39:55Z</time>
      </trkpt>
      <trkpt lat="42.70921" lon="1.62236">
        <ele>1880.476074</ele>
        <time>2013-06-16T14:40:22Z</time>
      </trkpt>
      <trkpt lat="42.70918" lon="1.62264">
        <ele>1880.956787</ele>
        <time>2013-06-16T14:40:49Z</time>
      </trkpt>
      <trkpt lat="42.70921" lon="1.62293">
        <ele>1878.553467</ele>
        <time>2013-06-16T14:41:16Z</time>
      </trkpt>
      <trkpt lat="42.70927" lon="1.6231">
        <ele>1875.188721</ele>
        <time>2013-06-16T14:41:48Z</time>
      </trkpt>
      <trkpt lat="42.70924" lon="1.62338">
        <ele>1875.188721</ele>
        <time>2013-06-16T14:42:15Z</time>
      </trkpt>
      <trkpt lat="42.70919" lon="1.62361">
        <ele>1873.746826</ele>
        <time>2013-06-16T14:42:39Z</time>
      </trkpt>
      <trkpt lat="42.70919" lon="1.62384">
        <ele>1872.304932</ele>
        <time>2013-06-16T14:42:57Z</time>
      </trkpt>
      <trkpt lat="42.70922" lon="1.62408">
        <ele>1869.421143</ele>
        <time>2013-06-16T14:43:24Z</time>
      </trkpt>
      <trkpt lat="42.70931" lon="1.6243">
        <ele>1867.498047</ele>
        <time>2013-06-16T14:45:10Z</time>
      </trkpt>
      <trkpt lat="42.70937" lon="1.62452">
        <ele>1866.056152</ele>
        <time>2013-06-16T14:45:55Z</time>
      </trkpt>
      <trkpt lat="42.70938" lon="1.62476">
        <ele>1867.017578</ele>
        <time>2013-06-16T14:46:17Z</time>
      </trkpt>
      <trkpt lat="42.70944" lon="1.62499">
        <ele>1867.498047</ele>
        <time>2013-06-16T14:46:40Z</time>
      </trkpt>
      <trkpt lat="42.7095" lon="1.62522">
        <ele>1867.498047</ele>
        <time>2013-06-16T14:47:11Z</time>
      </trkpt>
      <trkpt lat="42.70952" lon="1.62546">
        <ele>1866.056152</ele>
        <time>2013-06-16T14:47:31Z</time>
      </trkpt>
      <trkpt lat="42.70956" lon="1.6257">
        <ele>1865.094971</ele>
        <time>2013-06-16T14:48:07Z</time>
      </trkpt>
      <trkpt lat="42.70949" lon="1.6259">
        <ele>1864.614258</ele>
        <time>2013-06-16T14:48:29Z</time>
      </trkpt>
      <trkpt lat="42.70942" lon="1.62597">
        <ele>1863.172363</ele>
        <time>2013-06-16T14:49:54Z</time>
      </trkpt>
      <trkpt lat="42.70956" lon="1.62617">
        <ele>1864.133545</ele>
        <time>2013-06-16T14:50:22Z</time>
      </trkpt>
      <trkpt lat="42.70964" lon="1.62639">
        <ele>1864.614258</ele>
        <time>2013-06-16T14:50:44Z</time>
      </trkpt>
      <trkpt lat="42.70978" lon="1.62653">
        <ele>1864.133545</ele>
        <time>2013-06-16T14:51:06Z</time>
      </trkpt>
      <trkpt lat="42.7098" lon="1.62676">
        <ele>1864.133545</ele>
        <time>2013-06-16T14:51:26Z</time>
      </trkpt>
      <trkpt lat="42.70986" lon="1.62697">
        <ele>1865.094971</ele>
        <time>2013-06-16T14:51:47Z</time>
      </trkpt>
      <trkpt lat="42.7099" lon="1.62721">
        <ele>1866.056152</ele>
        <time>2013-06-16T14:52:09Z</time>
      </trkpt>
      <trkpt lat="42.70996" lon="1.62742">
        <ele>1867.97876</ele>
        <time>2013-06-16T14:52:44Z</time>
      </trkpt>
      <trkpt lat="42.71" lon="1.62765">
        <ele>1869.901611</ele>
        <time>2013-06-16T14:53:11Z</time>
      </trkpt>
      <trkpt lat="42.71011" lon="1.62786">
        <ele>1871.824219</ele>
        <time>2013-06-16T14:53:33Z</time>
      </trkpt>
      <trkpt lat="42.7102" lon="1.62808">
        <ele>1874.227539</ele>
        <time>2013-06-16T14:53:59Z</time>
      </trkpt>
      <trkpt lat="42.71032" lon="1.62826">
        <ele>1877.111572</ele>
        <time>2013-06-16T14:54:31Z</time>
      </trkpt>
      <trkpt lat="42.71046" lon="1.62836">
        <ele>1878.553467</ele>
        <time>2013-06-16T14:55:12Z</time>
      </trkpt>
      <trkpt lat="42.71064" lon="1.62853">
        <ele>1882.398682</ele>
        <time>2013-06-16T14:55:43Z</time>
      </trkpt>
      <trkpt lat="42.71088" lon="1.62864">
        <ele>1884.321533</ele>
        <time>2013-06-16T14:56:09Z</time>
      </trkpt>
      <trkpt lat="42.7111" lon="1.62879">
        <ele>1888.166748</ele>
        <time>2013-06-16T14:56:45Z</time>
      </trkpt>
      <trkpt lat="42.71138" lon="1.62892">
        <ele>1889.608643</ele>
        <time>2013-06-16T14:58:27Z</time>
      </trkpt>
      <trkpt lat="42.71158" lon="1.62895">
        <ele>1891.53125</ele>
        <time>2013-06-16T14:58:49Z</time>
      </trkpt>
      <trkpt lat="42.71177" lon="1.62911">
        <ele>1891.53125</ele>
        <time>2013-06-16T14:59:19Z</time>
      </trkpt>
      <trkpt lat="42.71196" lon="1.62929">
        <ele>1894.415039</ele>
        <time>2013-06-16T14:59:50Z</time>
      </trkpt>
      <trkpt lat="42.71211" lon="1.62958">
        <ele>1893.93457</ele>
        <time>2013-06-16T15:00:21Z</time>
      </trkpt>
      <trkpt lat="42.71218" lon="1.62984">
        <ele>1893.93457</ele>
        <time>2013-06-16T15:00:42Z</time>
      </trkpt>
      <trkpt lat="42.71225" lon="1.63012">
        <ele>1894.895752</ele>
        <time>2013-06-16T15:01:05Z</time>
      </trkpt>
      <trkpt lat="42.71237" lon="1.63042">
        <ele>1893.93457</ele>
        <time>2013-06-16T15:01:29Z</time>
      </trkpt>
      <trkpt lat="42.71238" lon="1.6307">
        <ele>1893.93457</ele>
        <time>2013-06-16T15:01:49Z</time>
      </trkpt>
      <trkpt lat="42.71235" lon="1.63102">
        <ele>1894.895752</ele>
        <time>2013-06-16T15:02:13Z</time>
      </trkpt>
      <trkpt lat="42.71239" lon="1.63133">
        <ele>1894.895752</ele>
        <time>2013-06-16T15:02:35Z</time>
      </trkpt>
      <trkpt lat="42.71243" lon="1.63164">
        <ele>1895.376465</ele>
        <time>2013-06-16T15:03:01Z</time>
      </trkpt>
      <trkpt lat="42.71247" lon="1.63194">
        <ele>1894.895752</ele>
        <time>2013-06-16T15:03:27Z</time>
      </trkpt>
      <trkpt lat="42.71255" lon="1.63221">
        <ele>1894.415039</ele>
        <time>2013-06-16T15:03:45Z</time>
      </trkpt>
      <trkpt lat="42.71263" lon="1.63242">
        <ele>1893.453857</ele>
        <time>2013-06-16T15:04:01Z</time>
      </trkpt>
      <trkpt lat="42.71269" lon="1.63265">
        <ele>1892.973145</ele>
        <time>2013-06-16T15:04:22Z</time>
      </trkpt>
      <trkpt lat="42.71278" lon="1.6329">
        <ele>1890.569824</ele>
        <time>2013-06-16T15:04:51Z</time>
      </trkpt>
      <trkpt lat="42.71286" lon="1.63325">
        <ele>1890.089355</ele>
        <time>2013-06-16T15:05:29Z</time>
      </trkpt>
      <trkpt lat="42.71295" lon="1.63351">
        <ele>1887.686035</ele>
        <time>2013-06-16T15:06:16Z</time>
      </trkpt>
      <trkpt lat="42.71292" lon="1.63384">
        <ele>1888.647461</ele>
        <time>2013-06-16T15:06:48Z</time>
      </trkpt>
      <trkpt lat="42.71287" lon="1.63413">
        <ele>1886.724609</ele>
        <time>2013-06-16T15:07:19Z</time>
      </trkpt>
      <trkpt lat="42.71282" lon="1.63433">
        <ele>1885.763428</ele>
        <time>2013-06-16T15:07:57Z</time>
      </trkpt>
      <trkpt lat="42.71285" lon="1.63461">
        <ele>1883.359863</ele>
        <time>2013-06-16T15:08:35Z</time>
      </trkpt>
      <trkpt lat="42.71297" lon="1.6348">
        <ele>1879.514648</ele>
        <time>2013-06-16T15:09:07Z</time>
      </trkpt>
      <trkpt lat="42.71307" lon="1.63498">
        <ele>1874.708252</ele>
        <time>2013-06-16T15:09:28Z</time>
      </trkpt>
      <trkpt lat="42.71316" lon="1.63519">
        <ele>1871.343506</ele>
        <time>2013-06-16T15:09:49Z</time>
      </trkpt>
      <trkpt lat="42.71322" lon="1.63538">
        <ele>1867.017578</ele>
        <time>2013-06-16T15:10:45Z</time>
      </trkpt>
      <trkpt lat="42.71337" lon="1.63555">
        <ele>1863.652832</ele>
        <time>2013-06-16T15:11:07Z</time>
      </trkpt>
      <trkpt lat="42.71348" lon="1.63574">
        <ele>1859.807617</ele>
        <time>2013-06-16T15:11:38Z</time>
      </trkpt>
      <trkpt lat="42.71363" lon="1.63585">
        <ele>1856.443115</ele>
        <time>2013-06-16T15:12:03Z</time>
      </trkpt>
      <trkpt lat="42.71376" lon="1.63595">
        <ele>1855.481934</ele>
        <time>2013-06-16T15:12:58Z</time>
      </trkpt>
      <trkpt lat="42.71388" lon="1.63612">
        <ele>1852.5979</ele>
        <time>2013-06-16T15:13:17Z</time>
      </trkpt>
      <trkpt lat="42.71405" lon="1.63621">
        <ele>1849.713867</ele>
        <time>2013-06-16T15:13:38Z</time>
      </trkpt>
      <trkpt lat="42.71423" lon="1.6363">
        <ele>1847.79126</ele>
        <time>2013-06-16T15:13:58Z</time>
      </trkpt>
      <trkpt lat="42.7144" lon="1.63641">
        <ele>1848.271729</ele>
        <time>2013-06-16T15:14:18Z</time>
      </trkpt>
      <trkpt lat="42.71456" lon="1.63653">
        <ele>1845.868652</ele>
        <time>2013-06-16T15:14:35Z</time>
      </trkpt>
      <trkpt lat="42.71473" lon="1.63664">
        <ele>1843.465332</ele>
        <time>2013-06-16T15:14:54Z</time>
      </trkpt>
      <trkpt lat="42.71487" lon="1.63681">
        <ele>1835.774658</ele>
        <time>2013-06-16T15:15:21Z</time>
      </trkpt>
      <trkpt lat="42.715" lon="1.63694">
        <ele>1830.968262</ele>
        <time>2013-06-16T15:15:40Z</time>
      </trkpt>
      <trkpt lat="42.71517" lon="1.63703">
        <ele>1828.084229</ele>
        <time>2013-06-16T15:16:04Z</time>
      </trkpt>
      <trkpt lat="42.71528" lon="1.63719">
        <ele>1824.239014</ele>
        <time>2013-06-16T15:16:26Z</time>
      </trkpt>
      <trkpt lat="42.71537" lon="1.6374">
        <ele>1819.912842</ele>
        <time>2013-06-16T15:16:55Z</time>
      </trkpt>
      <trkpt lat="42.71544" lon="1.63761">
        <ele>1814.625732</ele>
        <time>2013-06-16T15:17:15Z</time>
      </trkpt>
      <trkpt lat="42.71555" lon="1.63782">
        <ele>1808.85791</ele>
        <time>2013-06-16T15:17:37Z</time>
      </trkpt>
      <trkpt lat="42.71564" lon="1.63801">
        <ele>1804.531982</ele>
        <time>2013-06-16T15:18:00Z</time>
      </trkpt>
      <trkpt lat="42.71574" lon="1.63817">
        <ele>1799.244629</ele>
        <time>2013-06-16T15:18:24Z</time>
      </trkpt>
      <trkpt lat="42.71585" lon="1.63843">
        <ele>1791.554199</ele>
        <time>2013-06-16T15:18:54Z</time>
      </trkpt>
      <trkpt lat="42.71598" lon="1.63863">
        <ele>1786.747314</ele>
        <time>2013-06-16T15:19:17Z</time>
      </trkpt>
      <trkpt lat="42.71607" lon="1.63882">
        <ele>1781.460205</ele>
        <time>2013-06-16T15:19:42Z</time>
      </trkpt>
      <trkpt lat="42.71618" lon="1.63901">
        <ele>1776.653809</ele>
        <time>2013-06-16T15:20:07Z</time>
      </trkpt>
      <trkpt lat="42.7163" lon="1.63921">
        <ele>1771.366211</ele>
        <time>2013-06-16T15:20:32Z</time>
      </trkpt>
      <trkpt lat="42.71635" lon="1.63942">
        <ele>1765.598633</ele>
        <time>2013-06-16T15:20:57Z</time>
      </trkpt>
      <trkpt lat="42.71651" lon="1.63955">
        <ele>1762.7146</ele>
        <time>2013-06-16T15:21:19Z</time>
      </trkpt>
      <trkpt lat="42.71665" lon="1.63972">
        <ele>1757.908203</ele>
        <time>2013-06-16T15:21:41Z</time>
      </trkpt>
      <trkpt lat="42.71676" lon="1.63994">
        <ele>1755.023926</ele>
        <time>2013-06-16T15:22:04Z</time>
      </trkpt>
      <trkpt lat="42.71688" lon="1.64015">
        <ele>1752.139893</ele>
        <time>2013-06-16T15:22:25Z</time>
      </trkpt>
      <trkpt lat="42.717" lon="1.64036">
        <ele>1750.697998</ele>
        <time>2013-06-16T15:22:46Z</time>
      </trkpt>
      <trkpt lat="42.717" lon="1.64062">
        <ele>1749.736816</ele>
        <time>2013-06-16T15:23:11Z</time>
      </trkpt>
      <trkpt lat="42.7171" lon="1.64081">
        <ele>1748.775391</ele>
        <time>2013-06-16T15:23:31Z</time>
      </trkpt>
      <trkpt lat="42.7171" lon="1.64107">
        <ele>1747.814209</ele>
        <time>2013-06-16T15:23:51Z</time>
      </trkpt>
      <trkpt lat="42.71714" lon="1.64125">
        <ele>1746.852783</ele>
        <time>2013-06-16T15:24:18Z</time>
      </trkpt>
      <trkpt lat="42.71714" lon="1.64151">
        <ele>1743.488281</ele>
        <time>2013-06-16T15:24:39Z</time>
      </trkpt>
      <trkpt lat="42.71719" lon="1.64178">
        <ele>1740.604248</ele>
        <time>2013-06-16T15:25:02Z</time>
      </trkpt>
      <trkpt lat="42.71712" lon="1.64207">
        <ele>1740.123779</ele>
        <time>2013-06-16T15:25:26Z</time>
      </trkpt>
      <trkpt lat="42.71719" lon="1.64228">
        <ele>1738.681641</ele>
        <time>2013-06-16T15:25:55Z</time>
      </trkpt>
      <trkpt lat="42.71728" lon="1.64257">
        <ele>1735.797607</ele>
        <time>2013-06-16T15:26:29Z</time>
      </trkpt>
      <trkpt lat="42.7173" lon="1.64294">
        <ele>1733.394287</ele>
        <time>2013-06-16T15:27:03Z</time>
      </trkpt>
      <trkpt lat="42.71739" lon="1.64321">
        <ele>1731.47168</ele>
        <time>2013-06-16T15:27:30Z</time>
      </trkpt>
      <trkpt lat="42.71742" lon="1.64352">
        <ele>1730.029785</ele>
        <time>2013-06-16T15:27:49Z</time>
      </trkpt>
      <trkpt lat="42.71747" lon="1.64381">
        <ele>1728.107178</ele>
        <time>2013-06-16T15:28:08Z</time>
      </trkpt>
      <trkpt lat="42.71755" lon="1.64406">
        <ele>1725.223145</ele>
        <time>2013-06-16T15:28:27Z</time>
      </trkpt>
      <trkpt lat="42.71761" lon="1.64433">
        <ele>1721.377686</ele>
        <time>2013-06-16T15:28:55Z</time>
      </trkpt>
      <trkpt lat="42.71782" lon="1.64456">
        <ele>1719.455322</ele>
        <time>2013-06-16T15:29:13Z</time>
      </trkpt>
      <trkpt lat="42.71795" lon="1.64475">
        <ele>1717.532471</ele>
        <time>2013-06-16T15:29:31Z</time>
      </trkpt>
      <trkpt lat="42.71806" lon="1.64502">
        <ele>1714.648682</ele>
        <time>2013-06-16T15:29:49Z</time>
      </trkpt>
      <trkpt lat="42.71808" lon="1.6452">
        <ele>1711.764893</ele>
        <time>2013-06-16T15:30:08Z</time>
      </trkpt>
      <trkpt lat="42.7182" lon="1.64538">
        <ele>1709.361572</ele>
        <time>2013-06-16T15:30:28Z</time>
      </trkpt>
      <trkpt lat="42.71821" lon="1.64561">
        <ele>1708.400146</ele>
        <time>2013-06-16T15:30:44Z</time>
      </trkpt>
      <trkpt lat="42.71831" lon="1.64584">
        <ele>1706.477295</ele>
        <time>2013-06-16T15:31:02Z</time>
      </trkpt>
      <trkpt lat="42.71844" lon="1.64599">
        <ele>1704.554688</ele>
        <time>2013-06-16T15:31:19Z</time>
      </trkpt>
      <trkpt lat="42.71846" lon="1.64619">
        <ele>1704.074219</ele>
        <time>2013-06-16T15:31:55Z</time>
      </trkpt>
      <trkpt lat="42.71822" lon="1.64629">
        <ele>1703.112793</ele>
        <time>2013-06-16T15:32:15Z</time>
      </trkpt>
      <trkpt lat="42.71817" lon="1.64644">
        <ele>1702.151367</ele>
        <time>2013-06-16T15:32:34Z</time>
      </trkpt>
      <trkpt lat="42.71794" lon="1.64653">
        <ele>1701.670898</ele>
        <time>2013-06-16T15:33:03Z</time>
      </trkpt>
      <trkpt lat="42.71772" lon="1.64667">
        <ele>1701.190186</ele>
        <time>2013-06-16T15:33:18Z</time>
      </trkpt>
      <trkpt lat="42.7176" lon="1.64675">
        <ele>1700.709473</ele>
        <time>2013-06-16T15:33:33Z</time>
      </trkpt>
      <trkpt lat="42.71748" lon="1.64677">
        <ele>1699.748291</ele>
        <time>2013-06-16T15:33:49Z</time>
      </trkpt>
      <trkpt lat="42.71726" lon="1.64685">
        <ele>1700.229004</ele>
        <time>2013-06-16T15:34:09Z</time>
      </trkpt>
      <trkpt lat="42.71703" lon="1.64689">
        <ele>1699.267578</ele>
        <time>2013-06-16T15:34:25Z</time>
      </trkpt>
      <trkpt lat="42.71682" lon="1.64692">
        <ele>1699.267578</ele>
        <time>2013-06-16T15:34:48Z</time>
      </trkpt>
      <trkpt lat="42.71664" lon="1.64678">
        <ele>1697.344971</ele>
        <time>2013-06-16T15:35:16Z</time>
      </trkpt>
      <trkpt lat="42.71632" lon="1.64692">
        <ele>1693.499756</ele>
        <time>2013-06-16T15:35:35Z</time>
      </trkpt>
      <trkpt lat="42.71612" lon="1.64691">
        <ele>1691.096191</ele>
        <time>2013-06-16T15:35:55Z</time>
      </trkpt>
      <trkpt lat="42.71594" lon="1.6469">
        <ele>1687.250977</ele>
        <time>2013-06-16T15:36:15Z</time>
      </trkpt>
      <trkpt lat="42.71572" lon="1.64681">
        <ele>1684.8479</ele>
        <time>2013-06-16T15:36:38Z</time>
      </trkpt>
      <trkpt lat="42.71552" lon="1.64673">
        <ele>1678.599365</ele>
        <time>2013-06-16T15:37:07Z</time>
      </trkpt>
      <trkpt lat="42.71528" lon="1.64664">
        <ele>1672.350586</ele>
        <time>2013-06-16T15:37:36Z</time>
      </trkpt>
      <trkpt lat="42.71504" lon="1.6464">
        <ele>1661.776367</ele>
        <time>2013-06-16T15:38:35Z</time>
      </trkpt>
      <trkpt lat="42.715" lon="1.64624">
        <ele>1660.814941</ele>
        <time>2013-06-16T15:42:29Z</time>
      </trkpt>
      <trkpt lat="42.7148" lon="1.64608">
        <ele>1655.046875</ele>
        <time>2013-06-16T15:49:03Z</time>
      </trkpt>
      <trkpt lat="42.71456" lon="1.64591">
        <ele>1646.875732</ele>
        <time>2013-06-16T15:49:32Z</time>
      </trkpt>
      <trkpt lat="42.71434" lon="1.64567">
        <ele>1640.626953</ele>
        <time>2013-06-16T15:50:04Z</time>
      </trkpt>
      <trkpt lat="42.71412" lon="1.64554">
        <ele>1632.456055</ele>
        <time>2013-06-16T15:50:44Z</time>
      </trkpt>
      <trkpt lat="42.71385" lon="1.64532">
        <ele>1625.24585</ele>
        <time>2013-06-16T15:51:29Z</time>
      </trkpt>
      <trkpt lat="42.7136" lon="1.64531">
        <ele>1626.207275</ele>
        <time>2013-06-16T15:52:01Z</time>
      </trkpt>
      <trkpt lat="42.71352" lon="1.6457">
        <ele>1621.400635</ele>
        <time>2013-06-16T15:52:49Z</time>
      </trkpt>
      <trkpt lat="42.71338" lon="1.64589">
        <ele>1619.478271</ele>
        <time>2013-06-16T15:53:14Z</time>
      </trkpt>
      <trkpt lat="42.71325" lon="1.64595">
        <ele>1618.036133</ele>
        <time>2013-06-16T15:53:51Z</time>
      </trkpt>
      <trkpt lat="42.71323" lon="1.64632">
        <ele>1612.268311</ele>
        <time>2013-06-16T15:54:43Z</time>
      </trkpt>
      <trkpt lat="42.71302" lon="1.64662">
        <ele>1607.46167</ele>
        <time>2013-06-16T15:55:20Z</time>
      </trkpt>
      <trkpt lat="42.71325" lon="1.64665">
        <ele>1605.05835</ele>
        <time>2013-06-16T15:55:58Z</time>
      </trkpt>
      <trkpt lat="42.71338" lon="1.64702">
        <ele>1594.483643</ele>
        <time>2013-06-16T15:56:39Z</time>
      </trkpt>
      <trkpt lat="42.71331" lon="1.64734">
        <ele>1584.390137</ele>
        <time>2013-06-16T15:57:19Z</time>
      </trkpt>
      <trkpt lat="42.71309" lon="1.64749">
        <ele>1574.296143</ele>
        <time>2013-06-16T15:57:58Z</time>
      </trkpt>
      <trkpt lat="42.71287" lon="1.64775">
        <ele>1558.434326</ele>
        <time>2013-06-16T15:58:59Z</time>
      </trkpt>
      <trkpt lat="42.71286" lon="1.6479">
        <ele>1545.937256</ele>
        <time>2013-06-16T15:59:44Z</time>
      </trkpt>
      <trkpt lat="42.71271" lon="1.64817">
        <ele>1535.362793</ele>
        <time>2013-06-16T16:00:22Z</time>
      </trkpt>
      <trkpt lat="42.71268" lon="1.64844">
        <ele>1522.38501</ele>
        <time>2013-06-16T16:01:33Z</time>
      </trkpt>
      <trkpt lat="42.71273" lon="1.64882">
        <ele>1505.081299</ele>
        <time>2013-06-16T16:02:49Z</time>
      </trkpt>
      <trkpt lat="42.7125" lon="1.64925">
        <ele>1493.064697</ele>
        <time>2013-06-16T16:03:38Z</time>
      </trkpt>
      <trkpt lat="42.71248" lon="1.64945">
        <ele>1488.739014</ele>
        <time>2013-06-16T16:04:02Z</time>
      </trkpt>
      <trkpt lat="42.7125" lon="1.64971">
        <ele>1487.296875</ele>
        <time>2013-06-16T16:04:28Z</time>
      </trkpt>
      <trkpt lat="42.71227" lon="1.64999">
        <ele>1485.374268</ele>
        <time>2013-06-16T16:04:56Z</time>
      </trkpt>
      <trkpt lat="42.71248" lon="1.65045">
        <ele>1477.683594</ele>
        <time>2013-06-16T16:06:05Z</time>
      </trkpt>
      <trkpt lat="42.71263" lon="1.6508">
        <ele>1473.35791</ele>
        <time>2013-06-16T16:06:31Z</time>
      </trkpt>
      <trkpt lat="42.71252" lon="1.65121">
        <ele>1469.512695</ele>
        <time>2013-06-16T16:06:57Z</time>
      </trkpt>
      <trkpt lat="42.71236" lon="1.65147">
        <ele>1465.667236</ele>
        <time>2013-06-16T16:07:24Z</time>
      </trkpt>
      <trkpt lat="42.71221" lon="1.65175">
        <ele>1463.263916</ele>
        <time>2013-06-16T16:07:48Z</time>
      </trkpt>
      <trkpt lat="42.71204" lon="1.65201">
        <ele>1456.534668</ele>
        <time>2013-06-16T16:08:25Z</time>
      </trkpt>
      <trkpt lat="42.71184" lon="1.65217">
        <ele>1453.650879</ele>
        <time>2013-06-16T16:09:02Z</time>
      </trkpt>
      <trkpt lat="42.71148" lon="1.65214">
        <ele>1448.363281</ele>
        <time>2013-06-16T16:09:43Z</time>
      </trkpt>
      <trkpt lat="42.71153" lon="1.65246">
        <ele>1446.440918</ele>
        <time>2013-06-16T16:11:33Z</time>
      </trkpt>
      <trkpt lat="42.71136" lon="1.65271">
        <ele>1445.479492</ele>
        <time>2013-06-16T16:12:16Z</time>
      </trkpt>
      <trkpt lat="42.7113" lon="1.65312">
        <ele>1444.037598</ele>
        <time>2013-06-16T16:13:17Z</time>
      </trkpt>
      <trkpt lat="42.71136" lon="1.65347">
        <ele>1442.11499</ele>
        <time>2013-06-16T16:13:56Z</time>
      </trkpt>
      <trkpt lat="42.71139" lon="1.65392">
        <ele>1437.30835</ele>
        <time>2013-06-16T16:14:32Z</time>
      </trkpt>
      <trkpt lat="42.71142" lon="1.65427">
        <ele>1433.943604</ele>
        <time>2013-06-16T16:15:18Z</time>
      </trkpt>
      <trkpt lat="42.71128" lon="1.65474">
        <ele>1426.253174</ele>
        <time>2013-06-16T16:16:06Z</time>
      </trkpt>
      <trkpt lat="42.71112" lon="1.65515">
        <ele>1419.043213</ele>
        <time>2013-06-16T16:16:47Z</time>
      </trkpt>
      <trkpt lat="42.71094" lon="1.65559">
        <ele>1410.391357</ele>
        <time>2013-06-16T16:17:36Z</time>
      </trkpt>
      <trkpt lat="42.71097" lon="1.65594">
        <ele>1400.778076</ele>
        <time>2013-06-16T16:18:50Z</time>
      </trkpt>
      <trkpt lat="42.71111" lon="1.65615">
        <ele>1385.396973</ele>
        <time>2013-06-16T16:20:01Z</time>
      </trkpt>
      <trkpt lat="42.71093" lon="1.65655">
        <ele>1379.148438</ele>
        <time>2013-06-16T16:20:38Z</time>
      </trkpt>
      <trkpt lat="42.71094" lon="1.65692">
        <ele>1370.977295</ele>
        <time>2013-06-16T16:21:22Z</time>
      </trkpt>
      <trkpt lat="42.71085" lon="1.65748">
        <ele>1360.402832</ele>
        <time>2013-06-16T16:23:31Z</time>
      </trkpt>
      <trkpt lat="42.71095" lon="1.65759">
        <ele>1360.883545</ele>
        <time>2013-06-16T16:24:49Z</time>
      </trkpt>
      <trkpt lat="42.711" lon="1.65754">
        <ele>1360.883545</ele>
        <time>2013-06-16T16:26:09Z</time>
      </trkpt>
      <trkpt lat="42.71088" lon="1.65739">
        <ele>1358.960938</ele>
        <time>2013-06-16T16:30:39Z</time>
      </trkpt>
      <trkpt lat="42.7109" lon="1.65739">
        <ele>1358.960938</ele>
        <time>2013-06-16T16:33:53Z</time>
      </trkpt>
      <trkpt lat="42.71097" lon="1.65789">
        <ele>1356.557617</ele>
        <time>2013-06-16T16:36:23Z</time>
      </trkpt>
      <trkpt lat="42.71094" lon="1.65832">
        <ele>1350.309082</ele>
        <time>2013-06-16T16:37:01Z</time>
      </trkpt>
      <trkpt lat="42.71081" lon="1.65858">
        <ele>1337.811768</ele>
        <time>2013-06-16T16:38:02Z</time>
      </trkpt>
      <trkpt lat="42.71104" lon="1.65879">
        <ele>1330.121338</ele>
        <time>2013-06-16T16:38:44Z</time>
      </trkpt>
      <trkpt lat="42.711" lon="1.65903">
        <ele>1320.508057</ele>
        <time>2013-06-16T16:39:30Z</time>
      </trkpt>
      <trkpt lat="42.71105" lon="1.65931">
        <ele>1307.530273</ele>
        <time>2013-06-16T16:40:24Z</time>
      </trkpt>
      <trkpt lat="42.71135" lon="1.65941">
        <ele>1293.591309</ele>
        <time>2013-06-16T16:41:46Z</time>
      </trkpt>
      <trkpt lat="42.71144" lon="1.65969">
        <ele>1284.45874</ele>
        <time>2013-06-16T16:42:31Z</time>
      </trkpt>
      <trkpt lat="42.71168" lon="1.65975">
        <ele>1273.403564</ele>
        <time>2013-06-16T16:43:23Z</time>
      </trkpt>
      <trkpt lat="42.71198" lon="1.65984">
        <ele>1266.193604</ele>
        <time>2013-06-16T16:43:59Z</time>
      </trkpt>
      <trkpt lat="42.71202" lon="1.66019">
        <ele>1255.138428</ele>
        <time>2013-06-16T16:44:41Z</time>
      </trkpt>
      <trkpt lat="42.71195" lon="1.66028">
        <ele>1246.486816</ele>
        <time>2013-06-16T16:45:19Z</time>
      </trkpt>
      <trkpt lat="42.71206" lon="1.6608">
        <ele>1224.376221</ele>
        <time>2013-06-16T16:47:05Z</time>
      </trkpt>
      <trkpt lat="42.7122" lon="1.66104">
        <ele>1210.437012</ele>
        <time>2013-06-16T16:48:22Z</time>
      </trkpt>
      <trkpt lat="42.7122" lon="1.66146">
        <ele>1197.940186</ele>
        <time>2013-06-16T16:49:25Z</time>
      </trkpt>
      <trkpt lat="42.71249" lon="1.66185">
        <ele>1177.752197</ele>
        <time>2013-06-16T16:50:56Z</time>
      </trkpt>
      <trkpt lat="42.7126" lon="1.6623">
        <ele>1168.619873</ele>
        <time>2013-06-16T16:52:09Z</time>
      </trkpt>
      <trkpt lat="42.71278" lon="1.66269">
        <ele>1157.083984</ele>
        <time>2013-06-16T16:53:04Z</time>
      </trkpt>
      <trkpt lat="42.71282" lon="1.66308">
        <ele>1153.719482</ele>
        <time>2013-06-16T16:53:38Z</time>
      </trkpt>
      <trkpt lat="42.71277" lon="1.6635">
        <ele>1143.625488</ele>
        <time>2013-06-16T16:54:34Z</time>
      </trkpt>
      <trkpt lat="42.71294" lon="1.66355">
        <ele>1131.608887</ele>
        <time>2013-06-16T16:55:34Z</time>
      </trkpt>
      <trkpt lat="42.71297" lon="1.66383">
        <ele>1119.112061</ele>
        <time>2013-06-16T16:56:46Z</time>
      </trkpt>
      <trkpt lat="42.71308" lon="1.66422">
        <ele>1101.80835</ele>
        <time>2013-06-16T16:58:05Z</time>
      </trkpt>
      <trkpt lat="42.71326" lon="1.66441">
        <ele>1094.117676</ele>
        <time>2013-06-16T16:58:37Z</time>
      </trkpt>
      <trkpt lat="42.71312" lon="1.66437">
        <ele>1093.15625</ele>
        <time>2013-06-16T16:59:52Z</time>
      </trkpt>
      <trkpt lat="42.71325" lon="1.66412">
        <ele>1095.55957</ele>
        <time>2013-06-16T17:00:51Z</time>
      </trkpt>
      <trkpt lat="42.71347" lon="1.66419">
        <ele>1096.040283</ele>
        <time>2013-06-16T17:01:37Z</time>
      </trkpt>
      <trkpt lat="42.71362" lon="1.6638">
        <ele>1097.001465</ele>
        <time>2013-06-16T17:02:38Z</time>
      </trkpt>
      <trkpt lat="42.71375" lon="1.66395">
        <ele>1095.078857</ele>
        <time>2013-06-16T17:03:13Z</time>
      </trkpt>
      <trkpt lat="42.714" lon="1.66409">
        <ele>1090.75293</ele>
        <time>2013-06-16T17:03:37Z</time>
      </trkpt>
      <trkpt lat="42.71419" lon="1.66426">
        <ele>1085.946533</ele>
        <time>2013-06-16T17:04:07Z</time>
      </trkpt>
      <trkpt lat="42.7142" lon="1.66453">
        <ele>1082.581787</ele>
        <time>2013-06-16T17:04:32Z</time>
      </trkpt>
      <trkpt lat="42.71432" lon="1.66479">
        <ele>1080.178467</ele>
        <time>2013-06-16T17:04:57Z</time>
      </trkpt>
      <trkpt lat="42.71401" lon="1.6651">
        <ele>1078.255859</ele>
        <time>2013-06-16T17:05:43Z</time>
      </trkpt>
      <trkpt lat="42.71428" lon="1.66525">
        <ele>1074.410645</ele>
        <time>2013-06-16T17:06:38Z</time>
      </trkpt>
      <trkpt lat="42.71445" lon="1.66542">
        <ele>1071.526611</ele>
        <time>2013-06-16T17:06:59Z</time>
      </trkpt>
      <trkpt lat="42.71439" lon="1.66546">
        <ele>1069.123535</ele>
        <time>2013-06-16T17:07:36Z</time>
      </trkpt>
      <trkpt lat="42.71441" lon="1.66553">
        <ele>1067.681152</ele>
        <time>2013-06-16T17:08:50Z</time>
      </trkpt>
    </trkseg>
  </trk>
</gpx>